sensor_id;sensor_type;location;lat;lon;timestamp;temperature;humidity
67901;DHT22;54700;51.796;10.956;2022-10-16T00:02:13;14.80;85.50
67901;DHT22;54700;51.796;10.956;2022-10-16T00:04:40;14.80;85.50
67901;DHT22;54700;51.796;10.956;2022-10-16T00:07:08;14.80;85.10
67901;DHT22;54700;51.796;10.956;2022-10-16T00:09:34;14.80;85.10
67901;DHT22;54700;51.796;10.956;2022-10-16T00:12:01;14.70;85.10
67901;DHT22;54700;51.796;10.956;2022-10-16T00:14:29;14.70;85.40
67901;DHT22;54700;51.796;10.956;2022-10-16T00:16:56;14.60;85.50
67901;DHT22;54700;51.796;10.956;2022-10-16T00:19:22;14.50;85.70
67901;DHT22;54700;51.796;10.956;2022-10-16T00:21:49;14.50;85.70
67901;DHT22;54700;51.796;10.956;2022-10-16T00:24:17;14.40;85.90
67901;DHT22;54700;51.796;10.956;2022-10-16T00:26:44;14.40;86.10
67901;DHT22;54700;51.796;10.956;2022-10-16T00:29:11;14.30;86.20
67901;DHT22;54700;51.796;10.956;2022-10-16T00:31:37;14.30;85.90
67901;DHT22;54700;51.796;10.956;2022-10-16T00:34:04;14.20;85.90
67901;DHT22;54700;51.796;10.956;2022-10-16T00:36:31;14.20;85.80
67901;DHT22;54700;51.796;10.956;2022-10-16T00:38:58;14.10;85.80
67901;DHT22;54700;51.796;10.956;2022-10-16T00:41:27;14.00;85.80
67901;DHT22;54700;51.796;10.956;2022-10-16T00:43:55;14.00;86.00
67901;DHT22;54700;51.796;10.956;2022-10-16T00:46:23;13.90;86.10
67901;DHT22;54700;51.796;10.956;2022-10-16T00:48:55;13.80;86.20
67901;DHT22;54700;51.796;10.956;2022-10-16T00:51:28;13.80;86.20
67901;DHT22;54700;51.796;10.956;2022-10-16T00:53:58;13.70;86.40
67901;DHT22;54700;51.796;10.956;2022-10-16T00:56:27;13.60;86.60
67901;DHT22;54700;51.796;10.956;2022-10-16T00:58:54;13.60;86.70
67901;DHT22;54700;51.796;10.956;2022-10-16T01:01:21;13.60;86.70
67901;DHT22;54700;51.796;10.956;2022-10-16T01:03:48;13.60;86.50
67901;DHT22;54700;51.796;10.956;2022-10-16T01:06:18;13.50;87.00
67901;DHT22;54700;51.796;10.956;2022-10-16T01:08:54;13.50;87.00
67901;DHT22;54700;51.796;10.956;2022-10-16T01:11:33;13.60;87.00
67901;DHT22;54700;51.796;10.956;2022-10-16T01:14:13;13.60;86.70
67901;DHT22;54700;51.796;10.956;2022-10-16T01:16:44;13.50;86.80
67901;DHT22;54700;51.796;10.956;2022-10-16T01:19:16;13.50;86.60
67901;DHT22;54700;51.796;10.956;2022-10-16T01:21:52;13.50;86.60
67901;DHT22;54700;51.796;10.956;2022-10-16T01:24:25;13.40;87.10
67901;DHT22;54700;51.796;10.956;2022-10-16T01:27:05;13.40;87.20
67901;DHT22;54700;51.796;10.956;2022-10-16T01:29:36;13.50;87.20
67901;DHT22;54700;51.796;10.956;2022-10-16T01:32:10;13.50;87.00
67901;DHT22;54700;51.796;10.956;2022-10-16T01:34:44;13.60;86.70
67901;DHT22;54700;51.796;10.956;2022-10-16T01:37:27;13.60;86.40
67901;DHT22;54700;51.796;10.956;2022-10-16T01:39:58;13.60;86.20
67901;DHT22;54700;51.796;10.956;2022-10-16T01:42:28;13.60;86.10
67901;DHT22;54700;51.796;10.956;2022-10-16T01:45:00;13.50;86.30
67901;DHT22;54700;51.796;10.956;2022-10-16T01:47:28;13.50;86.30
67901;DHT22;54700;51.796;10.956;2022-10-16T01:49:57;13.50;86.40
67901;DHT22;54700;51.796;10.956;2022-10-16T01:52:26;13.50;86.60
67901;DHT22;54700;51.796;10.956;2022-10-16T01:54:56;13.50;86.40
67901;DHT22;54700;51.796;10.956;2022-10-16T01:57:24;13.60;86.50
67901;DHT22;54700;51.796;10.956;2022-10-16T01:59:54;13.50;86.40
67901;DHT22;54700;51.796;10.956;2022-10-16T02:02:26;13.50;86.60
67901;DHT22;54700;51.796;10.956;2022-10-16T02:04:57;13.50;86.60
67901;DHT22;54700;51.796;10.956;2022-10-16T02:07:29;13.40;87.10
67901;DHT22;54700;51.796;10.956;2022-10-16T02:09:56;13.40;87.00
67901;DHT22;54700;51.796;10.956;2022-10-16T02:12:23;13.30;87.30
67901;DHT22;54700;51.796;10.956;2022-10-16T02:14:55;13.40;87.70
67901;DHT22;54700;51.796;10.956;2022-10-16T02:17:22;13.40;87.90
67901;DHT22;54700;51.796;10.956;2022-10-16T02:19:50;13.40;87.80
67901;DHT22;54700;51.796;10.956;2022-10-16T02:22:21;13.50;87.40
67901;DHT22;54700;51.796;10.956;2022-10-16T02:24:52;13.50;87.70
67901;DHT22;54700;51.796;10.956;2022-10-16T02:27:24;13.50;88.20
67901;DHT22;54700;51.796;10.956;2022-10-16T02:29:58;13.50;87.50
67901;DHT22;54700;51.796;10.956;2022-10-16T02:32:33;13.40;87.70
67901;DHT22;54700;51.796;10.956;2022-10-16T02:35:02;13.40;87.70
67901;DHT22;54700;51.796;10.956;2022-10-16T02:37:30;13.40;87.70
67901;DHT22;54700;51.796;10.956;2022-10-16T02:39:58;13.40;87.70
67901;DHT22;54700;51.796;10.956;2022-10-16T02:42:29;13.40;87.80
67901;DHT22;54700;51.796;10.956;2022-10-16T02:45:01;13.40;87.80
67901;DHT22;54700;51.796;10.956;2022-10-16T02:47:29;13.40;87.90
67901;DHT22;54700;51.796;10.956;2022-10-16T02:49:55;13.40;87.80
67901;DHT22;54700;51.796;10.956;2022-10-16T02:52:22;13.30;87.80
67901;DHT22;54700;51.796;10.956;2022-10-16T02:54:49;13.30;87.80
67901;DHT22;54700;51.796;10.956;2022-10-16T02:57:16;13.30;87.80
67901;DHT22;54700;51.796;10.956;2022-10-16T02:59:43;13.30;88.20
67901;DHT22;54700;51.796;10.956;2022-10-16T03:02:11;13.30;88.70
67901;DHT22;54700;51.796;10.956;2022-10-16T03:04:38;13.30;88.90
67901;DHT22;54700;51.796;10.956;2022-10-16T03:07:05;13.20;88.70
67901;DHT22;54700;51.796;10.956;2022-10-16T03:09:32;13.20;88.70
67901;DHT22;54700;51.796;10.956;2022-10-16T03:11:59;13.20;89.20
67901;DHT22;54700;51.796;10.956;2022-10-16T03:14:26;13.20;89.40
67901;DHT22;54700;51.796;10.956;2022-10-16T03:16:53;13.20;89.20
67901;DHT22;54700;51.796;10.956;2022-10-16T03:19:21;13.20;89.10
67901;DHT22;54700;51.796;10.956;2022-10-16T03:21:48;13.20;89.20
67901;DHT22;54700;51.796;10.956;2022-10-16T03:24:14;13.20;89.30
67901;DHT22;54700;51.796;10.956;2022-10-16T03:26:41;13.20;89.00
67901;DHT22;54700;51.796;10.956;2022-10-16T03:29:08;13.20;88.90
67901;DHT22;54700;51.796;10.956;2022-10-16T03:31:35;13.20;89.30
67901;DHT22;54700;51.796;10.956;2022-10-16T03:34:01;13.20;89.50
67901;DHT22;54700;51.796;10.956;2022-10-16T03:36:30;13.20;89.80
67901;DHT22;54700;51.796;10.956;2022-10-16T03:38:56;13.20;89.80
67901;DHT22;54700;51.796;10.956;2022-10-16T03:41:23;13.20;89.50
67901;DHT22;54700;51.796;10.956;2022-10-16T03:43:50;13.20;89.40
67901;DHT22;54700;51.796;10.956;2022-10-16T03:46:16;13.20;89.50
67901;DHT22;54700;51.796;10.956;2022-10-16T03:48:43;13.20;89.60
67901;DHT22;54700;51.796;10.956;2022-10-16T03:51:10;13.20;89.60
67901;DHT22;54700;51.796;10.956;2022-10-16T03:53:38;13.20;89.60
67901;DHT22;54700;51.796;10.956;2022-10-16T03:56:05;13.20;89.60
67901;DHT22;54700;51.796;10.956;2022-10-16T03:58:32;13.20;89.50
67901;DHT22;54700;51.796;10.956;2022-10-16T04:00:59;13.20;89.60
67901;DHT22;54700;51.796;10.956;2022-10-16T04:03:26;13.20;90.10
67901;DHT22;54700;51.796;10.956;2022-10-16T04:05:52;13.10;90.10
67901;DHT22;54700;51.796;10.956;2022-10-16T04:08:20;13.10;90.20
67901;DHT22;54700;51.796;10.956;2022-10-16T04:10:48;13.10;90.30
67901;DHT22;54700;51.796;10.956;2022-10-16T04:13:15;13.10;90.20
67901;DHT22;54700;51.796;10.956;2022-10-16T04:15:42;13.10;90.40
67901;DHT22;54700;51.796;10.956;2022-10-16T04:18:11;13.10;90.20
67901;DHT22;54700;51.796;10.956;2022-10-16T04:20:38;13.10;90.20
67901;DHT22;54700;51.796;10.956;2022-10-16T04:23:05;13.10;90.10
67901;DHT22;54700;51.796;10.956;2022-10-16T04:25:31;13.10;90.60
67901;DHT22;54700;51.796;10.956;2022-10-16T04:27:59;13.00;90.30
67901;DHT22;54700;51.796;10.956;2022-10-16T04:30:26;13.00;90.10
67901;DHT22;54700;51.796;10.956;2022-10-16T04:32:53;12.90;90.00
67901;DHT22;54700;51.796;10.956;2022-10-16T04:35:20;12.90;90.30
67901;DHT22;54700;51.796;10.956;2022-10-16T04:37:48;12.80;90.40
67901;DHT22;54700;51.796;10.956;2022-10-16T04:40:15;12.80;90.50
67901;DHT22;54700;51.796;10.956;2022-10-16T04:42:42;12.80;90.60
67901;DHT22;54700;51.796;10.956;2022-10-16T04:45:10;12.80;90.50
67901;DHT22;54700;51.796;10.956;2022-10-16T04:47:37;12.80;90.50
67901;DHT22;54700;51.796;10.956;2022-10-16T04:50:04;12.80;90.20
67901;DHT22;54700;51.796;10.956;2022-10-16T04:52:32;12.70;90.00
67901;DHT22;54700;51.796;10.956;2022-10-16T04:54:59;12.60;90.40
67901;DHT22;54700;51.796;10.956;2022-10-16T04:57:27;12.50;90.20
67901;DHT22;54700;51.796;10.956;2022-10-16T04:59:54;12.50;90.40
67901;DHT22;54700;51.796;10.956;2022-10-16T05:02:23;12.40;90.50
67901;DHT22;54700;51.796;10.956;2022-10-16T05:04:49;12.40;90.60
67901;DHT22;54700;51.796;10.956;2022-10-16T05:07:16;12.50;90.50
67901;DHT22;54700;51.796;10.956;2022-10-16T05:09:43;12.50;90.50
67901;DHT22;54700;51.796;10.956;2022-10-16T05:12:10;12.50;90.50
67901;DHT22;54700;51.796;10.956;2022-10-16T05:14:36;12.50;90.50
67901;DHT22;54700;51.796;10.956;2022-10-16T05:17:03;12.40;90.50
67901;DHT22;54700;51.796;10.956;2022-10-16T05:19:31;12.40;90.80
67901;DHT22;54700;51.796;10.956;2022-10-16T05:21:58;12.40;90.80
67901;DHT22;54700;51.796;10.956;2022-10-16T05:24:25;12.40;91.00
67901;DHT22;54700;51.796;10.956;2022-10-16T05:26:51;12.40;91.20
67901;DHT22;54700;51.796;10.956;2022-10-16T05:29:18;12.40;91.00
67901;DHT22;54700;51.796;10.956;2022-10-16T05:31:45;12.30;91.10
67901;DHT22;54700;51.796;10.956;2022-10-16T05:34:12;12.40;91.10
67901;DHT22;54700;51.796;10.956;2022-10-16T05:36:40;12.40;91.10
67901;DHT22;54700;51.796;10.956;2022-10-16T05:39:07;12.40;91.40
67901;DHT22;54700;51.796;10.956;2022-10-16T05:41:34;12.40;91.30
67901;DHT22;54700;51.796;10.956;2022-10-16T05:44:03;12.50;91.20
67901;DHT22;54700;51.796;10.956;2022-10-16T05:46:30;12.50;91.20
67901;DHT22;54700;51.796;10.956;2022-10-16T05:48:57;12.50;91.00
67901;DHT22;54700;51.796;10.956;2022-10-16T05:51:24;12.50;91.10
67901;DHT22;54700;51.796;10.956;2022-10-16T05:53:52;12.50;91.10
67901;DHT22;54700;51.796;10.956;2022-10-16T05:56:19;12.50;91.10
67901;DHT22;54700;51.796;10.956;2022-10-16T05:58:46;12.60;91.20
67901;DHT22;54700;51.796;10.956;2022-10-16T06:01:13;12.60;91.20
67901;DHT22;54700;51.796;10.956;2022-10-16T06:03:41;12.70;91.20
67901;DHT22;54700;51.796;10.956;2022-10-16T06:06:08;12.70;91.10
67901;DHT22;54700;51.796;10.956;2022-10-16T06:08:36;12.80;91.00
67901;DHT22;54700;51.796;10.956;2022-10-16T06:11:06;12.90;91.00
67901;DHT22;54700;51.796;10.956;2022-10-16T06:13:35;13.10;90.90
67901;DHT22;54700;51.796;10.956;2022-10-16T06:16:02;13.20;90.60
67901;DHT22;54700;51.796;10.956;2022-10-16T06:18:30;13.30;90.20
67901;DHT22;54700;51.796;10.956;2022-10-16T06:20:57;13.50;89.60
67901;DHT22;54700;51.796;10.956;2022-10-16T06:23:24;13.60;88.90
67901;DHT22;54700;51.796;10.956;2022-10-16T06:25:51;13.70;88.50
67901;DHT22;54700;51.796;10.956;2022-10-16T06:28:19;13.80;88.00
67901;DHT22;54700;51.796;10.956;2022-10-16T06:30:46;13.80;87.50
67901;DHT22;54700;51.796;10.956;2022-10-16T06:33:13;13.90;87.10
67901;DHT22;54700;51.796;10.956;2022-10-16T06:35:40;13.90;86.60
67901;DHT22;54700;51.796;10.956;2022-10-16T06:38:07;14.10;86.20
67901;DHT22;54700;51.796;10.956;2022-10-16T06:40:33;14.10;85.80
67901;DHT22;54700;51.796;10.956;2022-10-16T06:43:00;14.10;85.60
67901;DHT22;54700;51.796;10.956;2022-10-16T06:45:28;14.20;85.50
67901;DHT22;54700;51.796;10.956;2022-10-16T06:47:55;14.10;85.40
67901;DHT22;54700;51.796;10.956;2022-10-16T06:50:22;14.20;85.30
67901;DHT22;54700;51.796;10.956;2022-10-16T06:52:49;14.20;85.10
67901;DHT22;54700;51.796;10.956;2022-10-16T06:55:15;14.30;84.80
67901;DHT22;54700;51.796;10.956;2022-10-16T06:57:42;14.40;84.50
67901;DHT22;54700;51.796;10.956;2022-10-16T07:00:10;14.50;84.20
67901;DHT22;54700;51.796;10.956;2022-10-16T07:02:38;14.50;84.10
67901;DHT22;54700;51.796;10.956;2022-10-16T07:05:05;14.60;84.10
67901;DHT22;54700;51.796;10.956;2022-10-16T07:07:32;14.60;84.20
67901;DHT22;54700;51.796;10.956;2022-10-16T07:09:59;14.60;84.00
67901;DHT22;54700;51.796;10.956;2022-10-16T07:12:26;14.60;84.70
67901;DHT22;54700;51.796;10.956;2022-10-16T07:14:53;14.60;84.00
67901;DHT22;54700;51.796;10.956;2022-10-16T07:17:21;14.70;83.80
67901;DHT22;54700;51.796;10.956;2022-10-16T07:19:50;14.70;83.50
67901;DHT22;54700;51.796;10.956;2022-10-16T07:22:18;14.80;83.40
67901;DHT22;54700;51.796;10.956;2022-10-16T07:24:46;14.90;83.40
67901;DHT22;54700;51.796;10.956;2022-10-16T07:27:14;14.90;83.20
67901;DHT22;54700;51.796;10.956;2022-10-16T07:29:46;14.90;82.60
67901;DHT22;54700;51.796;10.956;2022-10-16T07:32:15;14.90;82.30
67901;DHT22;54700;51.796;10.956;2022-10-16T07:34:42;15.00;82.20
67901;DHT22;54700;51.796;10.956;2022-10-16T07:37:12;15.00;82.20
67901;DHT22;54700;51.796;10.956;2022-10-16T07:39:40;15.00;81.90
67901;DHT22;54700;51.796;10.956;2022-10-16T07:42:07;15.00;81.80
67901;DHT22;54700;51.796;10.956;2022-10-16T07:44:37;15.10;81.90
67901;DHT22;54700;51.796;10.956;2022-10-16T07:47:06;15.10;81.70
67901;DHT22;54700;51.796;10.956;2022-10-16T07:49:37;15.10;81.90
67901;DHT22;54700;51.796;10.956;2022-10-16T07:52:04;15.10;81.80
67901;DHT22;54700;51.796;10.956;2022-10-16T07:54:33;15.10;81.80
67901;DHT22;54700;51.796;10.956;2022-10-16T07:57:00;15.20;82.00
67901;DHT22;54700;51.796;10.956;2022-10-16T07:59:28;15.20;81.80
67901;DHT22;54700;51.796;10.956;2022-10-16T08:01:57;15.20;81.40
67901;DHT22;54700;51.796;10.956;2022-10-16T08:04:24;15.20;81.20
67901;DHT22;54700;51.796;10.956;2022-10-16T08:06:52;15.20;81.10
67901;DHT22;54700;51.796;10.956;2022-10-16T08:09:19;15.20;80.70
67901;DHT22;54700;51.796;10.956;2022-10-16T08:11:48;15.20;81.50
67901;DHT22;54700;51.796;10.956;2022-10-16T08:14:17;15.20;80.40
67901;DHT22;54700;51.796;10.956;2022-10-16T08:16:44;15.20;80.20
67901;DHT22;54700;51.796;10.956;2022-10-16T08:19:12;15.20;80.40
67901;DHT22;54700;51.796;10.956;2022-10-16T08:21:40;15.20;80.40
67901;DHT22;54700;51.796;10.956;2022-10-16T08:24:08;15.30;80.60
67901;DHT22;54700;51.796;10.956;2022-10-16T08:26:35;15.30;80.10
67901;DHT22;54700;51.796;10.956;2022-10-16T08:29:07;15.30;79.50
67901;DHT22;54700;51.796;10.956;2022-10-16T08:31:34;15.40;79.10
67901;DHT22;54700;51.796;10.956;2022-10-16T08:34:02;15.50;78.70
67901;DHT22;54700;51.796;10.956;2022-10-16T08:36:29;15.50;78.80
67901;DHT22;54700;51.796;10.956;2022-10-16T08:38:57;15.60;78.50
67901;DHT22;54700;51.796;10.956;2022-10-16T08:44:41;15.60;78.00
67901;DHT22;54700;51.796;10.956;2022-10-16T08:47:28;15.70;77.60
67901;DHT22;54700;51.796;10.956;2022-10-16T08:50:08;15.70;77.60
67901;DHT22;54700;51.796;10.956;2022-10-16T08:52:38;15.70;77.20
67901;DHT22;54700;51.796;10.956;2022-10-16T08:55:09;15.80;77.10
67901;DHT22;54700;51.796;10.956;2022-10-16T08:57:49;15.80;76.60
67901;DHT22;54700;51.796;10.956;2022-10-16T09:00:21;15.90;76.70
67901;DHT22;54700;51.796;10.956;2022-10-16T09:02:52;16.00;76.50
67901;DHT22;54700;51.796;10.956;2022-10-16T09:05:36;16.10;76.30
67901;DHT22;54700;51.796;10.956;2022-10-16T09:08:15;16.10;76.20
67901;DHT22;54700;51.796;10.956;2022-10-16T09:10:57;16.20;75.90
67901;DHT22;54700;51.796;10.956;2022-10-16T09:13:33;16.20;74.60
67901;DHT22;54700;51.796;10.956;2022-10-16T09:16:17;16.30;75.00
67901;DHT22;54700;51.796;10.956;2022-10-16T09:18:51;16.40;74.50
67901;DHT22;54700;51.796;10.956;2022-10-16T09:21:25;16.40;73.70
67901;DHT22;54700;51.796;10.956;2022-10-16T09:23:57;16.40;73.60
67901;DHT22;54700;51.796;10.956;2022-10-16T09:26:26;16.50;73.80
67901;DHT22;54700;51.796;10.956;2022-10-16T09:28:53;16.60;73.20
67901;DHT22;54700;51.796;10.956;2022-10-16T09:31:22;16.60;71.60
67901;DHT22;54700;51.796;10.956;2022-10-16T09:33:57;16.60;71.00
67901;DHT22;54700;51.796;10.956;2022-10-16T09:36:29;16.70;70.10
67901;DHT22;54700;51.796;10.956;2022-10-16T09:39:08;16.70;68.70
67901;DHT22;54700;51.796;10.956;2022-10-16T09:41:40;16.70;69.60
67901;DHT22;54700;51.796;10.956;2022-10-16T09:44:18;16.80;70.00
67901;DHT22;54700;51.796;10.956;2022-10-16T09:47:00;16.90;70.00
67901;DHT22;54700;51.796;10.956;2022-10-16T09:49:28;17.00;70.10
67901;DHT22;54700;51.796;10.956;2022-10-16T09:52:02;17.10;70.10
67901;DHT22;54700;51.796;10.956;2022-10-16T09:54:32;17.20;69.60
67901;DHT22;54700;51.796;10.956;2022-10-16T09:57:06;17.20;69.60
67901;DHT22;54700;51.796;10.956;2022-10-16T09:59:45;17.30;68.90
67901;DHT22;54700;51.796;10.956;2022-10-16T10:02:18;17.30;68.30
67901;DHT22;54700;51.796;10.956;2022-10-16T10:04:52;17.40;68.30
67901;DHT22;54700;51.796;10.956;2022-10-16T10:07:24;17.40;66.40
67901;DHT22;54700;51.796;10.956;2022-10-16T10:09:53;17.50;66.70
67901;DHT22;54700;51.796;10.956;2022-10-16T10:12:21;17.70;66.20
67901;DHT22;54700;51.796;10.956;2022-10-16T10:14:52;17.80;64.60
67901;DHT22;54700;51.796;10.956;2022-10-16T10:17:22;17.90;64.80
67901;DHT22;54700;51.796;10.956;2022-10-16T10:20:13;17.90;65.10
67901;DHT22;54700;51.796;10.956;2022-10-16T10:22:49;18.00;65.00
67901;DHT22;54700;51.796;10.956;2022-10-16T10:25:30;17.90;64.00
67901;DHT22;54700;51.796;10.956;2022-10-16T10:28:27;17.80;64.80
67901;DHT22;54700;51.796;10.956;2022-10-16T10:31:14;17.60;64.80
67901;DHT22;54700;51.796;10.956;2022-10-16T10:33:52;17.50;65.00
67901;DHT22;54700;51.796;10.956;2022-10-16T10:36:29;17.50;65.60
67901;DHT22;54700;51.796;10.956;2022-10-16T10:39:00;17.50;66.30
67901;DHT22;54700;51.796;10.956;2022-10-16T10:44:31;17.30;65.10
67901;DHT22;54700;51.796;10.956;2022-10-16T10:47:12;17.30;65.70
67901;DHT22;54700;51.796;10.956;2022-10-16T10:49:56;17.20;66.00
67901;DHT22;54700;51.796;10.956;2022-10-16T10:52:35;17.20;66.30
67901;DHT22;54700;51.796;10.956;2022-10-16T10:55:15;17.20;66.90
67901;DHT22;54700;51.796;10.956;2022-10-16T10:57:54;17.10;66.70
67901;DHT22;54700;51.796;10.956;2022-10-16T11:00:38;17.00;66.20
67901;DHT22;54700;51.796;10.956;2022-10-16T11:03:13;17.10;66.30
67901;DHT22;54700;51.796;10.956;2022-10-16T11:06:01;17.00;66.20
67901;DHT22;54700;51.796;10.956;2022-10-16T11:08:35;16.90;66.40
67901;DHT22;54700;51.796;10.956;2022-10-16T11:11:10;16.90;66.80
67901;DHT22;54700;51.796;10.956;2022-10-16T11:13:44;16.80;67.00
67901;DHT22;54700;51.796;10.956;2022-10-16T11:16:22;16.80;67.40
67901;DHT22;54700;51.796;10.956;2022-10-16T11:18:55;16.80;66.90
67901;DHT22;54700;51.796;10.956;2022-10-16T11:21:32;17.00;66.20
67901;DHT22;54700;51.796;10.956;2022-10-16T11:24:08;17.10;65.30
67901;DHT22;54700;51.796;10.956;2022-10-16T11:26:42;17.30;64.40
67901;DHT22;54700;51.796;10.956;2022-10-16T11:29:17;17.50;64.40
67901;DHT22;54700;51.796;10.956;2022-10-16T11:31:50;17.60;63.20
67901;DHT22;54700;51.796;10.956;2022-10-16T11:34:22;17.70;62.50
67901;DHT22;54700;51.796;10.956;2022-10-16T11:36:58;17.70;62.30
67901;DHT22;54700;51.796;10.956;2022-10-16T11:39:29;17.70;61.30
67901;DHT22;54700;51.796;10.956;2022-10-16T11:42:01;17.70;61.30
67901;DHT22;54700;51.796;10.956;2022-10-16T11:44:42;17.70;62.00
67901;DHT22;54700;51.796;10.956;2022-10-16T11:47:32;17.70;62.00
67901;DHT22;54700;51.796;10.956;2022-10-16T11:50:02;17.80;60.80
67901;DHT22;54700;51.796;10.956;2022-10-16T11:52:41;17.80;59.50
67901;DHT22;54700;51.796;10.956;2022-10-16T11:55:17;17.80;59.70
67901;DHT22;54700;51.796;10.956;2022-10-16T11:57:48;17.80;60.30
67901;DHT22;54700;51.796;10.956;2022-10-16T12:00:20;17.80;60.20
67901;DHT22;54700;51.796;10.956;2022-10-16T12:02:54;17.80;59.80
67901;DHT22;54700;51.796;10.956;2022-10-16T12:05:33;17.80;59.60
67901;DHT22;54700;51.796;10.956;2022-10-16T12:08:15;17.70;59.30
67901;DHT22;54700;51.796;10.956;2022-10-16T12:10:44;17.70;59.70
67901;DHT22;54700;51.796;10.956;2022-10-16T12:13:29;17.70;60.00
67901;DHT22;54700;51.796;10.956;2022-10-16T12:16:05;17.80;60.10
67901;DHT22;54700;51.796;10.956;2022-10-16T12:18:47;17.80;59.20
67901;DHT22;54700;51.796;10.956;2022-10-16T12:21:17;17.90;59.70
67901;DHT22;54700;51.796;10.956;2022-10-16T12:23:58;17.90;59.90
67901;DHT22;54700;51.796;10.956;2022-10-16T12:26:31;18.00;59.10
67901;DHT22;54700;51.796;10.956;2022-10-16T12:29:12;18.00;57.20
67901;DHT22;54700;51.796;10.956;2022-10-16T12:31:48;18.10;57.80
67901;DHT22;54700;51.796;10.956;2022-10-16T12:34:21;18.10;58.10
67901;DHT22;54700;51.796;10.956;2022-10-16T12:36:54;18.10;57.50
67901;DHT22;54700;51.796;10.956;2022-10-16T12:39:27;18.10;55.30
67901;DHT22;54700;51.796;10.956;2022-10-16T12:42:01;18.20;56.20
67901;DHT22;54700;51.796;10.956;2022-10-16T12:44:34;18.20;56.40
67901;DHT22;54700;51.796;10.956;2022-10-16T12:47:03;18.30;57.20
67901;DHT22;54700;51.796;10.956;2022-10-16T12:49:34;18.30;56.90
67901;DHT22;54700;51.796;10.956;2022-10-16T12:54:57;18.40;55.30
67901;DHT22;54700;51.796;10.956;2022-10-16T12:57:35;18.40;54.90
67901;DHT22;54700;51.796;10.956;2022-10-16T13:00:14;18.40;54.70
67901;DHT22;54700;51.796;10.956;2022-10-16T13:02:56;18.40;54.30
67901;DHT22;54700;51.796;10.956;2022-10-16T13:05:51;18.40;53.70
67901;DHT22;54700;51.796;10.956;2022-10-16T13:08:33;18.40;55.80
67901;DHT22;54700;51.796;10.956;2022-10-16T13:11:22;18.50;55.10
67901;DHT22;54700;51.796;10.956;2022-10-16T13:14:05;18.50;56.10
67901;DHT22;54700;51.796;10.956;2022-10-16T13:16:50;18.50;53.80
67901;DHT22;54700;51.796;10.956;2022-10-16T13:19:27;18.40;54.20
67901;DHT22;54700;51.796;10.956;2022-10-16T13:22:02;18.40;54.50
67901;DHT22;54700;51.796;10.956;2022-10-16T13:24:42;18.40;54.00
67901;DHT22;54700;51.796;10.956;2022-10-16T13:27:26;18.50;53.60
67901;DHT22;54700;51.796;10.956;2022-10-16T13:30:08;18.40;53.50
67901;DHT22;54700;51.796;10.956;2022-10-16T13:32:39;18.30;54.20
67901;DHT22;54700;51.796;10.956;2022-10-16T13:35:21;18.30;54.20
67901;DHT22;54700;51.796;10.956;2022-10-16T13:37:50;18.20;54.30
67901;DHT22;54700;51.796;10.956;2022-10-16T13:40:19;18.30;54.90
67901;DHT22;54700;51.796;10.956;2022-10-16T13:42:49;18.30;55.30
67901;DHT22;54700;51.796;10.956;2022-10-16T13:45:18;18.30;55.90
67901;DHT22;54700;51.796;10.956;2022-10-16T13:47:46;18.40;55.00
67901;DHT22;54700;51.796;10.956;2022-10-16T13:50:14;18.40;54.40
67901;DHT22;54700;51.796;10.956;2022-10-16T13:52:43;18.40;54.20
67901;DHT22;54700;51.796;10.956;2022-10-16T13:55:16;18.40;55.10
67901;DHT22;54700;51.796;10.956;2022-10-16T13:57:45;18.40;55.00
67901;DHT22;54700;51.796;10.956;2022-10-16T14:00:22;18.40;54.90
67901;DHT22;54700;51.796;10.956;2022-10-16T14:02:52;18.30;55.00
67901;DHT22;54700;51.796;10.956;2022-10-16T14:05:26;18.30;55.10
67901;DHT22;54700;51.796;10.956;2022-10-16T14:07:54;18.40;54.70
67901;DHT22;54700;51.796;10.956;2022-10-16T14:10:23;18.40;54.00
67901;DHT22;54700;51.796;10.956;2022-10-16T14:12:54;18.40;53.20
67901;DHT22;54700;51.796;10.956;2022-10-16T14:15:24;18.50;53.20
67901;DHT22;54700;51.796;10.956;2022-10-16T14:17:55;18.50;54.00
67901;DHT22;54700;51.796;10.956;2022-10-16T14:20:24;18.40;54.40
67901;DHT22;54700;51.796;10.956;2022-10-16T14:23:00;18.40;53.80
67901;DHT22;54700;51.796;10.956;2022-10-16T14:25:29;18.30;53.80
67901;DHT22;54700;51.796;10.956;2022-10-16T14:27:59;18.30;54.60
67901;DHT22;54700;51.796;10.956;2022-10-16T14:30:30;18.20;55.90
67901;DHT22;54700;51.796;10.956;2022-10-16T14:32:59;18.30;55.00
67901;DHT22;54700;51.796;10.956;2022-10-16T14:35:29;18.30;54.40
67901;DHT22;54700;51.796;10.956;2022-10-16T14:38:00;18.40;54.60
67901;DHT22;54700;51.796;10.956;2022-10-16T14:40:45;18.40;54.20
67901;DHT22;54700;51.796;10.956;2022-10-16T14:43:14;18.40;54.90
67901;DHT22;54700;51.796;10.956;2022-10-16T14:45:52;18.50;55.20
67901;DHT22;54700;51.796;10.956;2022-10-16T14:48:22;18.40;54.70
67901;DHT22;54700;51.796;10.956;2022-10-16T14:50:51;18.40;55.00
67901;DHT22;54700;51.796;10.956;2022-10-16T14:53:19;18.40;53.20
67901;DHT22;54700;51.796;10.956;2022-10-16T14:55:46;18.30;53.70
67901;DHT22;54700;51.796;10.956;2022-10-16T14:58:14;18.30;54.40
67901;DHT22;54700;51.796;10.956;2022-10-16T15:00:43;18.20;54.80
67901;DHT22;54700;51.796;10.956;2022-10-16T15:03:12;18.20;54.80
67901;DHT22;54700;51.796;10.956;2022-10-16T15:05:40;18.10;55.00
67901;DHT22;54700;51.796;10.956;2022-10-16T15:08:10;18.10;55.10
67901;DHT22;54700;51.796;10.956;2022-10-16T15:10:39;18.00;55.10
67901;DHT22;54700;51.796;10.956;2022-10-16T15:13:11;18.00;55.20
67901;DHT22;54700;51.796;10.956;2022-10-16T15:15:40;17.90;55.40
67901;DHT22;54700;51.796;10.956;2022-10-16T15:18:10;17.90;55.50
67901;DHT22;54700;51.796;10.956;2022-10-16T15:20:40;17.80;55.80
67901;DHT22;54700;51.796;10.956;2022-10-16T15:23:10;17.90;55.70
67901;DHT22;54700;51.796;10.956;2022-10-16T15:25:41;17.80;56.00
67901;DHT22;54700;51.796;10.956;2022-10-16T15:28:10;17.80;56.50
67901;DHT22;54700;51.796;10.956;2022-10-16T15:30:38;17.70;57.20
67901;DHT22;54700;51.796;10.956;2022-10-16T15:33:09;17.60;57.30
67901;DHT22;54700;51.796;10.956;2022-10-16T15:35:40;17.60;57.90
67901;DHT22;54700;51.796;10.956;2022-10-16T15:38:10;17.50;57.70
67901;DHT22;54700;51.796;10.956;2022-10-16T15:40:38;17.40;57.90
67901;DHT22;54700;51.796;10.956;2022-10-16T15:43:06;17.40;58.50
67901;DHT22;54700;51.796;10.956;2022-10-16T15:45:34;17.30;58.90
67901;DHT22;54700;51.796;10.956;2022-10-16T15:48:01;17.30;59.40